Time;durP1;ratioP1;P1;durP2;ratioP2;P2;SDS_P1;SDS_P2;PMS_P1;PMS_P2;Temp;Humidity;BMP_temperature;BMP_pressure;BME280_temperature;BME280_humidity;BME280_pressure;Samples;Min_cycle;Max_cycle;Signal;HPM_P1;HPM_P2
2024/01/07 00:02:06;;;;;;;2.60;2.28;;;;;;;3.01;93.23;101960.16;5095250;27;96838;-28
2024/01/07 00:04:34;;;;;;;3.28;1.48;;;;;;;2.99;93.29;101976.22;5095482;27;97887;-28
2024/01/07 00:06:59;;;;;;;3.38;2.10;;;;;;;2.94;93.81;101978.94;5095471;27;99310;-28
2024/01/07 00:09:25;;;;;;;1.98;1.58;;;;;;;2.87;94.06;101982.59;5095653;27;97281;-28
2024/01/07 00:11:50;;;;;;;3.90;0.98;;;;;;;2.84;93.74;101974.59;5097606;27;96674;-28
2024/01/07 00:14:18;;;;;;;2.42;1.55;;;;;;;2.85;94.09;101978.16;5080526;27;98977;-28
2024/01/07 00:16:43;;;;;;;2.33;1.10;;;;;;;2.85;94.34;101987.06;5081158;27;101066;-27
2024/01/07 00:19:09;;;;;;;2.65;2.10;;;;;;;2.77;93.47;101975.56;5099393;27;96442;-27
2024/01/07 00:21:34;;;;;;;2.40;1.33;;;;;;;2.86;93.93;101986.19;5099547;27;96760;-27
2024/01/07 00:24:00;;;;;;;0.82;0.73;;;;;;;3.00;93.58;102002.06;5098399;27;99955;-27
2024/01/07 00:26:25;;;;;;;1.33;1.15;;;;;;;2.96;93.19;101982.47;5099148;27;97783;-28
2024/01/07 00:28:50;;;;;;;2.50;1.08;;;;;;;2.91;93.48;101989.69;5099356;27;96447;-27
2024/01/07 00:31:16;;;;;;;1.60;1.50;;;;;;;2.91;93.59;101997.72;5099323;27;96904;-27
2024/01/07 00:33:41;;;;;;;1.83;1.50;;;;;;;2.75;93.39;101985.41;5099024;27;97819;-28
2024/01/07 00:36:06;;;;;;;1.75;1.17;;;;;;;2.80;94.16;101993.38;5098918;27;97768;-27
2024/01/07 00:38:32;;;;;;;3.70;1.10;;;;;;;2.94;93.54;102005.69;5099104;27;96446;-27
2024/01/07 00:40:57;;;;;;;1.65;1.35;;;;;;;2.99;93.83;102008.31;5099673;27;96759;-28
2024/01/07 00:43:22;;;;;;;3.42;1.15;;;;;;;2.95;92.84;102006.56;5098782;27;97878;-29
2024/01/07 00:45:48;;;;;;;1.90;1.08;;;;;;;2.87;93.49;101997.75;5098961;27;97181;-28
2024/01/07 00:48:14;;;;;;;7.95;1.70;;;;;;;2.92;93.58;102010.19;5098057;27;100035;-27
2024/01/07 00:50:40;;;;;;;4.75;1.83;;;;;;;2.83;92.80;102015.63;5080394;27;96983;-27
2024/01/07 00:53:05;;;;;;;7.38;1.60;;;;;;;2.86;93.19;102007.59;5098719;27;97360;-28
2024/01/07 00:55:30;;;;;;;2.45;1.70;;;;;;;2.78;93.39;101998.75;5098955;27;98995;-27
2024/01/07 00:57:56;;;;;;;2.50;0.90;;;;;;;2.78;93.01;102008.56;5098590;27;96526;-28
2024/01/07 01:00:22;;;;;;;1.13;0.95;;;;;;;2.71;93.46;102005.06;5098901;27;96775;-29
2024/01/07 01:02:47;;;;;;;3.03;1.42;;;;;;;2.72;93.48;102009.53;5097940;27;98041;-27
2024/01/07 01:05:12;;;;;;;2.28;1.73;;;;;;;2.60;93.93;102014.97;5098716;27;97803;-28
2024/01/07 01:07:38;;;;;;;1.08;0.98;;;;;;;2.55;93.72;102021.28;5098722;27;96711;-27
2024/01/07 01:10:04;;;;;;;0.90;0.90;;;;;;;2.49;93.93;102010.63;5098750;27;96811;-27
2024/01/07 01:12:29;;;;;;;2.50;1.15;;;;;;;2.51;94.03;102016.84;5079239;27;101748;-29
2024/01/07 01:14:54;;;;;;;2.33;1.95;;;;;;;2.50;94.35;102015.09;5098144;27;98659;-28
2024/01/07 01:17:20;;;;;;;3.08;1.50;;;;;;;2.48;94.21;102015.97;5098818;27;96531;-29
2024/01/07 01:19:45;;;;;;;2.60;1.63;;;;;;;2.50;93.72;102025.78;5098136;27;96869;-28
2024/01/07 01:22:11;;;;;;;2.33;1.98;;;;;;;2.43;94.66;102013.38;5097599;27;98831;-27
2024/01/07 01:24:36;;;;;;;1.42;1.33;;;;;;;2.49;94.31;102018.63;5098063;27;99180;-28
2024/01/07 01:27:01;;;;;;;0.45;0.45;;;;;;;2.50;94.49;102028.44;5097924;27;96709;-28
2024/01/07 01:29:26;;;;;;;1.95;1.27;;;;;;;2.40;94.54;102015.16;5098789;27;96828;-28
2024/01/07 01:31:52;;;;;;;0.63;0.60;;;;;;;2.45;94.58;102027.59;5098251;27;97377;-28
2024/01/07 01:34:17;;;;;;;1.10;1.00;;;;;;;2.41;94.82;102031.19;5097692;27;97874;-27
2024/01/07 01:36:42;;;;;;;3.05;1.33;;;;;;;2.41;94.90;102033.88;5097986;27;96471;-28
2024/01/07 01:39:08;;;;;;;1.25;1.15;;;;;;;2.39;95.32;102046.38;5098304;27;96747;-27
2024/01/07 01:41:33;;;;;;;1.33;1.23;;;;;;;2.37;95.22;102045.50;5098060;27;97840;-28
2024/01/07 01:44:00;;;;;;;1.40;1.30;;;;;;;2.30;94.88;102041.09;5097807;27;97726;-27
2024/01/07 01:46:26;;;;;;;2.00;1.35;;;;;;;2.33;94.64;102051.75;5079562;27;96579;-27
2024/01/07 01:48:52;;;;;;;1.67;1.35;;;;;;;2.33;94.91;102041.06;5097888;27;96805;-28
2024/01/07 01:51:18;;;;;;;5.53;1.23;;;;;;;2.30;94.84;102050.00;5078886;27;101437;-28
2024/01/07 01:53:45;;;;;;;1.38;1.10;;;;;;;2.19;94.83;102048.31;5079304;27;100773;-29
2024/01/07 01:56:11;;;;;;;0.75;0.75;;;;;;;2.24;95.64;102054.50;5079131;27;96680;-27
2024/01/07 01:58:36;;;;;;;1.48;1.17;;;;;;;2.27;95.55;102073.19;5097984;27;96748;-27
2024/01/07 02:01:03;;;;;;;0.32;0.32;;;;;;;2.39;95.03;102066.88;5096593;27;97262;-28
2024/01/07 02:03:28;;;;;;;1.08;0.98;;;;;;;2.42;94.75;102069.53;5078581;27;101205;-27
2024/01/07 02:05:55;;;;;;;2.13;1.48;;;;;;;2.46;94.63;102069.47;5097924;27;96560;-28
2024/01/07 02:08:21;;;;;;;1.67;1.13;;;;;;;2.47;94.66;102081.06;5079170;27;96988;-28
2024/01/07 02:10:46;;;;;;;1.05;0.82;;;;;;;2.45;94.35;102069.47;5097826;27;97639;-27
2024/01/07 02:13:12;;;;;;;2.45;2.25;;;;;;;2.38;94.17;102063.28;5097292;27;99209;-28
2024/01/07 02:15:37;;;;;;;2.22;1.60;;;;;;;2.44;94.58;102084.66;5097408;27;96565;-28
2024/01/07 02:18:03;;;;;;;2.38;1.50;;;;;;;2.41;94.41;102081.09;5097823;27;96807;-27
2024/01/07 02:20:28;;;;;;;1.52;1.33;;;;;;;2.41;94.68;102074.00;5078493;27;101053;-27
2024/01/07 02:22:54;;;;;;;1.55;1.20;;;;;;;2.31;94.30;102074.94;5096915;27;99139;-28
2024/01/07 02:25:19;;;;;;;1.55;1.15;;;;;;;2.38;94.41;102078.44;5096832;27;96539;-28
2024/01/07 02:27:44;;;;;;;1.45;1.15;;;;;;;2.31;94.73;102086.53;5097409;27;96778;-27
2024/01/07 02:30:10;;;;;;;1.52;1.13;;;;;;;2.39;94.62;102089.16;5097067;27;104107;-28
2024/01/07 02:32:37;;;;;;;1.50;1.17;;;;;;;2.32;94.24;102069.59;5096370;27;99704;-28
2024/01/07 02:35:03;;;;;;;1.73;1.20;;;;;;;2.33;94.03;102089.19;5096306;27;96469;-27
2024/01/07 02:37:28;;;;;;;1.70;1.35;;;;;;;2.26;93.76;102082.97;5078563;27;96825;-27
2024/01/07 02:39:54;;;;;;;2.63;2.00;;;;;;;2.27;93.79;102083.91;5096700;27;99304;-27
2024/01/07 02:42:22;;;;;;;1.85;1.70;;;;;;;2.24;93.71;102090.16;5097109;27;99164;-28
2024/01/07 02:44:47;;;;;;;1.55;1.45;;;;;;;2.24;93.10;102097.25;5096792;27;96525;-28
2024/01/07 02:47:13;;;;;;;0.43;0.38;;;;;;;2.27;93.54;102091.91;5096924;27;96944;-27
2024/01/07 02:49:38;;;;;;;1.77;1.08;;;;;;;2.28;93.01;102107.03;5096098;27;99018;-27
2024/01/07 02:52:04;;;;;;;2.50;1.95;;;;;;;2.24;93.08;102102.59;5096675;27;97300;-27
2024/01/07 02:54:29;;;;;;;0.63;0.60;;;;;;;2.25;93.54;102109.75;5096883;27;96604;-27
2024/01/07 02:56:54;;;;;;;1.35;1.20;;;;;;;2.25;93.40;102102.59;5097123;27;96781;-27
2024/01/07 02:59:20;;;;;;;1.42;1.13;;;;;;;2.18;93.06;102110.69;5096622;27;101279;-27
2024/01/07 03:01:45;;;;;;;1.05;1.02;;;;;;;2.17;93.49;102109.81;5096085;27;97737;-27
2024/01/07 03:04:13;;;;;;;1.25;1.10;;;;;;;2.11;93.26;102091.13;5096814;27;96554;-29
2024/01/07 03:06:39;;;;;;;1.98;1.83;;;;;;;2.17;93.45;102104.47;5078422;27;96888;-28
2024/01/07 03:09:04;;;;;;;1.88;1.73;;;;;;;2.08;93.58;102099.16;5096384;27;97386;-27
2024/01/07 03:11:30;;;;;;;1.55;0.85;;;;;;;2.13;93.68;102102.69;5096268;27;99277;-28
2024/01/07 03:13:56;;;;;;;0.73;0.73;;;;;;;2.17;93.37;102115.16;5096266;27;96554;-27
2024/01/07 03:16:23;;;;;;;0.77;0.77;;;;;;;2.14;93.60;102115.16;5077803;27;96785;-27
2024/01/07 03:18:48;;;;;;;2.03;1.77;;;;;;;2.16;93.44;102121.38;5077745;27;100775;-27
2024/01/07 03:21:18;;;;;;;0.93;0.90;;;;;;;2.13;93.35;102124.97;5096480;27;97754;-28
2024/01/07 03:23:43;;;;;;;1.42;0.88;;;;;;;2.16;93.76;102124.06;5077963;27;96654;-28
2024/01/07 03:26:08;;;;;;;4.03;0.95;;;;;;;2.22;93.63;102134.72;5096335;27;96835;-28
2024/01/07 03:28:33;;;;;;;1.63;1.27;;;;;;;2.19;93.99;102137.38;5096153;27;97395;-27
2024/01/07 03:31:04;;;;;;;2.03;1.33;;;;;;;2.18;93.77;102137.41;5096437;27;103304;-27
2024/01/07 03:33:30;;;;;;;1.87;1.30;;;;;;;2.21;93.78;102129.38;5096672;27;96581;-27
2024/01/07 03:35:55;;;;;;;0.82;0.82;;;;;;;2.24;94.13;102126.66;5096642;27;96802;-27
2024/01/07 03:38:20;;;;;;;1.15;0.73;;;;;;;2.34;94.22;102139.09;5095774;27;97503;-27
2024/01/07 03:40:46;;;;;;;1.15;1.10;;;;;;;2.33;93.67;102148.00;5096063;27;97307;-28
2024/01/07 03:43:11;;;;;;;2.85;1.60;;;;;;;2.26;94.10;102146.25;5096392;27;96564;-28
2024/01/07 03:45:37;;;;;;;1.80;1.30;;;;;;;2.34;93.52;102152.47;5096164;27;96877;-28
2024/01/07 03:48:02;;;;;;;1.27;0.52;;;;;;;2.33;93.12;102148.88;5095807;27;101851;-27
2024/01/07 03:50:27;;;;;;;0.70;0.70;;;;;;;2.33;93.35;102150.66;5096096;27;97370;-27
2024/01/07 03:52:53;;;;;;;2.08;1.60;;;;;;;2.44;93.43;102158.63;5095919;27;96873;-27
2024/01/07 03:55:18;;;;;;;1.08;0.98;;;;;;;2.46;93.06;102165.75;5096762;27;96792;-28
2024/01/07 03:57:43;;;;;;;1.35;1.10;;;;;;;2.48;93.29;102165.72;5095966;27;98005;-28
2024/01/07 04:00:09;;;;;;;0.75;0.75;;;;;;;2.57;92.87;102172.81;5095592;27;97748;-27
2024/01/07 04:02:35;;;;;;;2.08;1.75;;;;;;;2.45;93.10;102161.28;5095016;27;96619;-28
2024/01/07 04:05:00;;;;;;;1.15;1.05;;;;;;;2.28;94.00;102174.75;5095785;27;96903;-28
2024/01/07 04:07:25;;;;;;;1.17;1.13;;;;;;;2.20;94.42;102178.41;5095653;27;97846;-28
2024/01/07 04:09:50;;;;;;;4.85;2.10;;;;;;;2.11;94.61;102184.66;5095628;27;97855;-28
2024/01/07 04:12:16;;;;;;;2.25;1.75;;;;;;;2.09;95.01;102181.97;5095652;27;96570;-27
2024/01/07 04:14:43;;;;;;;2.15;1.13;;;;;;;2.10;94.86;102194.47;5095827;27;96572;-28
2024/01/07 04:17:08;;;;;;;2.40;1.65;;;;;;;2.08;94.94;102187.34;5095463;27;97546;-27
2024/01/07 04:19:37;;;;;;;2.22;1.15;;;;;;;2.11;94.96;102177.53;5095744;27;99147;-27
2024/01/07 04:22:02;;;;;;;6.55;2.33;;;;;;;2.06;94.99;102198.03;5077059;27;96813;-27
2024/01/07 04:24:27;;;;;;;2.85;1.85;;;;;;;2.11;95.43;102190.88;5095988;27;96751;-28
2024/01/07 04:26:53;;;;;;;4.70;1.77;;;;;;;2.09;95.22;102186.44;5094838;27;99309;-28
2024/01/07 04:29:19;;;;;;;1.10;1.02;;;;;;;2.10;95.67;102198.94;5094912;27;99420;-27
2024/01/07 04:31:44;;;;;;;2.35;0.93;;;;;;;2.07;95.78;102189.16;5095668;27;96464;-28
2024/01/07 04:34:09;;;;;;;3.08;2.15;;;;;;;2.09;95.58;102195.34;5095768;27;96753;-28
2024/01/07 04:36:35;;;;;;;6.43;2.10;;;;;;;2.11;95.12;102200.69;5095487;27;97490;-27
2024/01/07 04:39:00;;;;;;;2.05;1.85;;;;;;;2.02;95.72;102195.38;5095276;27;100276;-28
2024/01/07 04:41:26;;;;;;;1.38;1.25;;;;;;;2.07;95.63;102194.50;5095686;27;96655;-27
2024/01/07 04:43:52;;;;;;;1.63;1.10;;;;;;;2.15;95.73;102210.50;5095257;27;96931;-27
2024/01/07 04:46:17;;;;;;;4.93;1.85;;;;;;;2.09;95.30;102200.69;5076488;27;101069;-27
2024/01/07 04:48:43;;;;;;;0.52;0.50;;;;;;;2.00;94.83;102203.44;5094841;27;99104;-27
2024/01/07 04:51:08;;;;;;;1.63;1.50;;;;;;;1.97;95.45;102203.44;5094503;27;96697;-28
2024/01/07 04:53:33;;;;;;;0.43;0.43;;;;;;;1.99;95.49;102214.13;5095155;27;96790;-28
2024/01/07 04:55:59;;;;;;;1.02;0.80;;;;;;;1.98;95.18;102205.22;5094911;27;99261;-27
2024/01/07 04:58:24;;;;;;;1.85;0.90;;;;;;;2.05;95.51;102224.75;5097336;27;98400;-27
2024/01/07 05:00:50;;;;;;;2.83;1.63;;;;;;;2.01;95.38;102225.69;5098844;27;96737;-28
2024/01/07 05:03:15;;;;;;;1.13;0.80;;;;;;;1.91;95.09;102224.84;5099028;27;96639;-27
2024/01/07 05:05:40;;;;;;;5.30;3.05;;;;;;;1.98;95.25;102225.69;5098592;27;97638;-27
2024/01/07 05:08:06;;;;;;;3.13;1.95;;;;;;;1.85;95.46;102214.16;5098796;27;98005;-27
2024/01/07 05:10:32;;;;;;;0.77;0.75;;;;;;;1.90;95.24;102233.72;5080076;27;96613;-27
2024/01/07 05:12:57;;;;;;;2.95;1.58;;;;;;;1.97;95.09;102235.50;5098480;27;96953;-27
2024/01/07 05:15:23;;;;;;;0.80;0.80;;;;;;;1.95;94.95;102237.28;5097640;27;99270;-27
2024/01/07 05:17:48;;;;;;;1.73;1.48;;;;;;;1.98;94.79;102245.31;5098041;27;98976;-27
2024/01/07 05:20:15;;;;;;;1.35;1.23;;;;;;;1.96;94.83;102244.41;5098397;27;96459;-27
2024/01/07 05:22:40;;;;;;;3.20;2.28;;;;;;;1.92;95.26;102251.53;5079782;27;96811;-28
2024/01/07 05:25:06;;;;;;;1.65;1.52;;;;;;;1.90;95.29;102250.66;5098291;27;97382;-28
2024/01/07 05:27:31;;;;;;;3.05;1.60;;;;;;;1.96;94.94;102248.88;5097615;27;99230;-28
2024/01/07 05:29:57;;;;;;;2.28;1.77;;;;;;;1.78;95.05;102257.81;5098513;27;96536;-28
2024/01/07 05:32:22;;;;;;;2.90;1.75;;;;;;;1.81;95.39;102260.47;5098956;27;96746;-27
2024/01/07 05:34:48;;;;;;;2.88;1.85;;;;;;;1.72;96.15;102261.41;5098169;27;97869;-28
2024/01/07 05:37:14;;;;;;;0.80;0.80;;;;;;;1.63;97.12;102261.41;5079337;27;101005;-27
2024/01/07 05:39:39;;;;;;;1.33;1.23;;;;;;;1.72;97.24;102268.50;5097935;27;96525;-27
2024/01/07 05:42:05;;;;;;;1.33;1.20;;;;;;;1.87;96.97;102271.16;5098158;27;96838;-28
2024/01/07 05:44:30;;;;;;;2.38;1.77;;;;;;;1.87;96.13;102273.81;5079036;27;99135;-27
2024/01/07 05:46:55;;;;;;;1.23;1.13;;;;;;;1.91;96.15;102281.81;5097956;27;97799;-27
2024/01/07 05:49:20;;;;;;;3.58;1.77;;;;;;;1.88;96.08;102280.94;5098203;27;96468;-27
2024/01/07 05:51:46;;;;;;;1.25;0.70;;;;;;;1.91;95.86;102283.63;5097945;27;96862;-28
2024/01/07 05:54:11;;;;;;;2.90;2.00;;;;;;;1.87;96.02;102280.06;5097551;27;99639;-27
2024/01/07 05:56:42;;;;;;;2.00;1.75;;;;;;;1.66;96.94;102283.66;5098038;27;97757;-28
2024/01/07 05:59:08;;;;;;;7.53;2.17;;;;;;;1.66;97.28;102288.09;5079147;27;96682;-28
2024/01/07 06:01:33;;;;;;;4.68;3.38;;;;;;;1.61;97.41;102289.91;5097177;27;96776;-27
2024/01/07 06:03:58;;;;;;;1.00;0.95;;;;;;;1.54;97.42;102289.00;5097149;27;97860;-28
2024/01/07 06:06:24;;;;;;;4.70;2.50;;;;;;;1.59;97.58;102299.69;5097449;27;98011;-29
2024/01/07 06:08:49;;;;;;;1.58;1.48;;;;;;;1.54;98.08;102305.03;5096420;27;96470;-28
2024/01/07 06:11:18;;;;;;;1.63;0.88;;;;;;;1.56;98.39;102308.59;5097703;27;96755;-27
2024/01/07 06:13:44;;;;;;;1.15;1.05;;;;;;;1.57;98.23;102317.50;5097244;27;97015;-28
2024/01/07 06:16:10;;;;;;;2.25;1.85;;;;;;;1.51;97.90;102314.84;5078743;27;100605;-27
2024/01/07 06:18:35;;;;;;;3.47;1.42;;;;;;;1.64;98.10;102317.47;5097772;27;96574;-27
2024/01/07 06:21:00;;;;;;;2.03;1.73;;;;;;;1.65;97.72;102326.41;5097948;27;96762;-27
2024/01/07 06:23:26;;;;;;;2.33;2.00;;;;;;;1.64;97.68;102329.94;5097086;27;103267;-27
2024/01/07 06:25:51;;;;;;;1.58;0.70;;;;;;;1.65;97.67;102329.94;5096713;27;98836;-28
2024/01/07 06:28:16;;;;;;;1.75;1.55;;;;;;;1.64;97.54;102337.97;5096773;27;96672;-28
2024/01/07 06:30:42;;;;;;;1.17;1.08;;;;;;;1.72;96.75;102343.28;5097582;27;96797;-27
2024/01/07 06:33:07;;;;;;;1.30;1.20;;;;;;;1.65;96.69;102335.28;5097085;27;97903;-28
2024/01/07 06:35:32;;;;;;;5.28;1.33;;;;;;;1.69;96.94;102342.44;5096857;27;99142;-27
2024/01/07 06:37:58;;;;;;;1.50;1.30;;;;;;;1.79;96.54;102348.66;5097117;27;96480;-27
2024/01/07 06:40:23;;;;;;;1.08;1.05;;;;;;;1.89;96.06;102353.06;5097233;27;96711;-27
2024/01/07 06:42:49;;;;;;;2.35;2.15;;;;;;;1.84;95.88;102351.31;5096683;27;99254;-29
2024/01/07 06:45:16;;;;;;;2.10;1.52;;;;;;;1.71;95.81;102361.09;5096931;27;99166;-27
2024/01/07 06:47:41;;;;;;;0.85;0.70;;;;;;;1.68;96.17;102367.34;5078544;27;97257;-27
2024/01/07 06:50:07;;;;;;;1.33;1.23;;;;;;;1.72;96.87;102368.25;5097175;27;96833;-28
2024/01/07 06:52:32;;;;;;;1.75;1.60;;;;;;;1.66;96.70;102363.78;5095794;27;99497;-27
2024/01/07 06:54:58;;;;;;;2.45;2.25;;;;;;;1.79;96.32;102362.00;5096741;27;97789;-27
2024/01/07 06:57:23;;;;;;;3.22;1.95;;;;;;;1.89;96.39;102370.91;5097062;27;96553;-27
2024/01/07 06:59:48;;;;;;;7.78;3.13;;;;;;;1.85;95.82;102375.34;5097092;27;96767;-28
2024/01/07 07:02:14;;;;;;;2.10;1.85;;;;;;;1.89;95.98;102381.59;5095631;27;99406;-27
2024/01/07 07:04:39;;;;;;;1.08;1.02;;;;;;;1.86;95.38;102368.19;5096343;27;99383;-28
2024/01/07 07:07:04;;;;;;;1.23;1.13;;;;;;;1.98;95.42;102386.91;5096949;27;96429;-27
2024/01/07 07:09:30;;;;;;;0.98;0.95;;;;;;;2.01;95.51;102394.03;5097270;27;96845;-28
2024/01/07 07:11:55;;;;;;;3.70;1.45;;;;;;;2.00;95.39;102397.59;5096280;27;97296;-28
2024/01/07 07:14:20;;;;;;;2.67;1.63;;;;;;;1.91;95.75;102390.50;5096517;27;97255;-27
2024/01/07 07:16:46;;;;;;;2.28;2.08;;;;;;;1.91;95.30;102401.19;5096411;27;96617;-28
2024/01/07 07:19:14;;;;;;;2.60;2.17;;;;;;;1.78;95.83;102397.59;5096416;27;96839;-27
2024/01/07 07:21:40;;;;;;;1.55;1.45;;;;;;;1.82;96.51;102406.53;5095714;27;99808;-27
2024/01/07 07:24:06;;;;;;;3.55;3.05;;;;;;;1.81;95.65;102400.28;5096326;27;97445;-27
2024/01/07 07:26:31;;;;;;;0.98;0.95;;;;;;;1.79;95.71;102407.41;5077869;27;96629;-28
2024/01/07 07:28:57;;;;;;;3.47;2.47;;;;;;;1.83;95.43;102416.31;5096654;27;96741;-27
2024/01/07 07:31:22;;;;;;;1.42;1.23;;;;;;;1.78;95.15;102421.66;5096042;27;99273;-27
2024/01/07 07:33:48;;;;;;;2.08;1.30;;;;;;;1.80;95.03;102437.69;5096758;27;97869;-28
2024/01/07 07:36:14;;;;;;;3.00;1.58;;;;;;;1.78;95.41;102436.78;5096556;27;96484;-27
2024/01/07 07:38:40;;;;;;;1.20;1.05;;;;;;;1.85;95.46;102431.44;5077713;27;96891;-28
2024/01/07 07:41:07;;;;;;;1.63;1.52;;;;;;;1.85;95.11;102450.16;5095617;27;97405;-27
2024/01/07 07:43:32;;;;;;;1.90;1.75;;;;;;;1.83;94.97;102445.69;5095935;27;99304;-27
2024/01/07 07:45:59;;;;;;;1.83;1.50;;;;;;;1.75;94.89;102444.81;5095956;27;96633;-27
2024/01/07 07:48:26;;;;;;;1.20;0.90;;;;;;;1.74;94.05;102467.97;5096388;27;96774;-27
2024/01/07 07:50:51;;;;;;;1.50;1.40;;;;;;;1.74;94.45;102467.03;5077105;27;99122;-27
2024/01/07 07:53:16;;;;;;;2.28;1.88;;;;;;;1.75;94.72;102471.53;5095643;27;98663;-27
2024/01/07 07:55:42;;;;;;;2.47;1.15;;;;;;;1.69;94.39;102475.06;5096681;27;96472;-29
2024/01/07 07:58:08;;;;;;;2.75;1.67;;;;;;;1.78;94.12;102474.19;5096580;27;96767;-27
2024/01/07 08:00:33;;;;;;;0.82;0.70;;;;;;;1.69;94.19;102475.97;5077065;27;101012;-27
2024/01/07 08:02:59;;;;;;;3.78;2.42;;;;;;;1.61;94.86;102472.38;5095157;27;99084;-28
2024/01/07 08:05:24;;;;;;;0.95;0.65;;;;;;;1.60;95.40;102481.28;5095666;27;96650;-27
2024/01/07 08:07:49;;;;;;;2.00;1.75;;;;;;;1.59;95.77;102479.50;5095929;27;97595;-27
2024/01/07 08:10:15;;;;;;;2.17;1.90;;;;;;;1.62;95.57;102479.53;5095439;27;98244;-27
2024/01/07 08:12:41;;;;;;;2.35;2.05;;;;;;;1.64;95.58;102491.06;5077004;27;100894;-27
2024/01/07 08:15:07;;;;;;;1.70;1.50;;;;;;;1.56;95.84;102474.16;5096106;27;96452;-28
2024/01/07 08:17:32;;;;;;;1.00;0.70;;;;;;;1.58;95.22;102485.72;5077094;27;96659;-28
2024/01/07 08:19:58;;;;;;;1.50;1.30;;;;;;;1.61;95.34;102496.41;5095534;27;99388;-27
2024/01/07 08:22:23;;;;;;;2.00;1.77;;;;;;;1.66;95.13;102512.44;5095778;27;99123;-28
2024/01/07 08:24:50;;;;;;;3.13;1.90;;;;;;;1.50;95.52;102498.16;5095750;27;96633;-27
2024/01/07 08:27:15;;;;;;;4.22;1.55;;;;;;;1.50;95.73;102503.50;5095567;27;96787;-27
2024/01/07 08:29:43;;;;;;;4.35;2.90;;;;;;;1.50;95.65;102508.84;5095082;27;98229;-27
2024/01/07 08:32:09;;;;;;;2.25;1.70;;;;;;;1.52;95.27;102512.41;5077476;27;100778;-27
2024/01/07 08:34:34;;;;;;;1.50;1.33;;;;;;;1.55;95.45;102514.19;5099597;27;96684;-27
2024/01/07 08:37:00;;;;;;;1.08;0.82;;;;;;;1.56;95.82;102516.00;5099231;27;96705;-28
2024/01/07 08:39:25;;;;;;;1.48;1.38;;;;;;;1.54;95.46;102525.78;5099053;27;97347;-27
2024/01/07 08:41:51;;;;;;;0.88;0.63;;;;;;;1.49;95.66;102521.31;5098823;27;99338;-28
2024/01/07 08:44:16;;;;;;;3.20;2.05;;;;;;;1.56;95.69;102527.56;5099055;27;96740;-27
2024/01/07 08:46:42;;;;;;;0.68;0.57;;;;;;;1.55;95.27;102517.78;5099435;27;96773;-27
2024/01/07 08:49:07;;;;;;;2.30;1.65;;;;;;;1.60;95.42;102529.38;5098919;27;97368;-27
2024/01/07 08:51:32;;;;;;;2.45;1.42;;;;;;;1.57;95.49;102528.44;5098757;27;97298;-27
2024/01/07 08:53:58;;;;;;;3.33;2.28;;;;;;;1.60;95.09;102537.38;5098409;27;96585;-28
2024/01/07 08:56:25;;;;;;;0.65;0.55;;;;;;;1.54;95.12;102528.44;5098697;27;96796;-27
2024/01/07 08:58:50;;;;;;;1.48;1.00;;;;;;;1.56;95.10;102540.03;5079909;27;101447;-28
2024/01/07 09:01:15;;;;;;;1.15;1.08;;;;;;;1.50;95.07;102535.53;5098397;27;97786;-28
2024/01/07 09:03:42;;;;;;;2.00;1.35;;;;;;;1.49;95.54;102547.13;5098860;27;96615;-28
2024/01/07 09:06:07;;;;;;;2.47;1.73;;;;;;;1.44;95.18;102541.75;5098584;27;96819;-29
2024/01/07 09:08:35;;;;;;;2.80;1.90;;;;;;;1.52;95.25;102564.94;5079532;27;98928;-27
2024/01/07 09:11:01;;;;;;;1.50;1.30;;;;;;;1.51;95.10;102561.38;5080245;27;100825;-28
2024/01/07 09:13:27;;;;;;;0.52;0.50;;;;;;;1.54;95.17;102572.06;5079898;27;96513;-27
2024/01/07 09:15:52;;;;;;;3.25;1.83;;;;;;;1.44;94.71;102563.13;5098529;27;96795;-28
2024/01/07 09:18:18;;;;;;;1.95;0.90;;;;;;;1.42;94.77;102559.56;5097541;27;99126;-27
2024/01/07 09:20:44;;;;;;;1.13;1.02;;;;;;;1.69;94.35;102569.47;5079640;27;101728;-28
2024/01/07 09:23:09;;;;;;;1.90;1.48;;;;;;;1.70;93.41;102578.34;5098205;27;96593;-27
2024/01/07 09:25:34;;;;;;;0.95;0.88;;;;;;;1.61;93.65;102568.53;5098648;27;96781;-27
2024/01/07 09:28:00;;;;;;;2.17;1.50;;;;;;;1.65;93.88;102591.69;5098148;27;100671;-27
2024/01/07 09:30:25;;;;;;;1.33;1.23;;;;;;;1.65;93.28;102581.00;5097868;27;99402;-30
2024/01/07 09:32:51;;;;;;;1.90;1.75;;;;;;;1.64;93.29;102589.00;5098528;27;96564;-27
2024/01/07 09:35:16;;;;;;;2.40;2.20;;;;;;;1.64;93.11;102589.00;5098542;27;96805;-27
2024/01/07 09:37:42;;;;;;;2.15;1.48;;;;;;;1.66;93.20;102587.22;5098220;27;96643;-28
2024/01/07 09:40:08;;;;;;;1.45;1.35;;;;;;;1.61;92.65;102599.69;5097693;27;99119;-28
2024/01/07 09:42:33;;;;;;;2.65;2.03;;;;;;;1.59;92.62;102599.66;5097343;27;96772;-28
2024/01/07 09:45:03;;;;;;;2.72;1.52;;;;;;;1.52;93.09;102605.88;5097499;27;96758;-28
2024/01/07 09:47:28;;;;;;;2.25;2.05;;;;;;;1.58;92.96;102613.03;5097756;27;98102;-29
2024/01/07 09:49:54;;;;;;;0.70;0.70;;;;;;;1.53;92.53;102606.78;5097633;27;99320;-27
2024/01/07 09:52:20;;;;;;;4.50;2.05;;;;;;;1.60;93.05;102614.81;5097663;27;96836;-28
2024/01/07 09:54:51;;;;;;;1.50;1.02;;;;;;;1.61;92.61;102621.06;5079241;27;96756;-28
2024/01/07 09:57:16;;;;;;;0.47;0.47;;;;;;;1.52;91.69;102626.34;5079209;27;99713;-27
2024/01/07 09:59:42;;;;;;;2.95;1.55;;;;;;;1.59;92.30;102629.03;5097824;27;98693;-27
2024/01/07 10:02:07;;;;;;;1.08;0.98;;;;;;;1.50;91.93;102623.66;5097122;27;96729;-28
2024/01/07 10:04:33;;;;;;;1.38;1.27;;;;;;;1.58;91.63;102642.41;5098070;27;96731;-27
2024/01/07 10:06:58;;;;;;;1.08;0.95;;;;;;;1.50;90.58;102639.69;5096508;27;99761;-27
2024/01/07 10:09:28;;;;;;;0.43;0.40;;;;;;;1.49;91.11;102633.44;5097539;27;97665;-27
2024/01/07 10:11:54;;;;;;;2.78;1.25;;;;;;;1.44;91.93;102635.22;5079156;27;96447;-27
2024/01/07 10:14:22;;;;;;;1.85;1.48;;;;;;;1.41;91.45;102642.31;5097693;27;96747;-28
2024/01/07 10:16:49;;;;;;;1.70;1.23;;;;;;;1.52;90.84;102642.38;5097244;27;98024;-27
2024/01/07 10:19:20;;;;;;;1.00;0.98;;;;;;;1.48;91.58;102642.38;5078429;27;100695;-27
2024/01/07 10:21:46;;;;;;;0.52;0.52;;;;;;;1.44;91.59;102645.88;5079053;27;96758;-27
2024/01/07 10:24:12;;;;;;;2.38;1.38;;;;;;;1.53;91.60;102649.50;5098116;27;96764;-26
2024/01/07 10:26:39;;;;;;;1.60;0.65;;;;;;;1.55;90.98;102655.72;5078563;27;101515;-27
2024/01/07 10:29:05;;;;;;;0.65;0.65;;;;;;;1.59;91.38;102653.09;5078396;27;101093;-27
2024/01/07 10:31:32;;;;;;;0.47;0.45;;;;;;;1.56;91.27;102654.84;5078216;27;96566;-27
2024/01/07 10:33:57;;;;;;;1.55;1.45;;;;;;;1.51;90.93;102652.16;5078679;27;96872;-27
2024/01/07 10:36:24;;;;;;;0.73;0.73;;;;;;;1.52;91.03;102661.94;5097067;27;97922;-26
2024/01/07 10:38:50;;;;;;;0.70;0.70;;;;;;;1.59;91.28;102658.41;5097041;27;97240;-27
2024/01/07 10:41:18;;;;;;;0.65;0.38;;;;;;;1.57;91.32;102652.16;5096227;27;96858;-27
2024/01/07 10:43:46;;;;;;;0.57;0.57;;;;;;;1.59;90.49;102657.53;5077155;27;98371;-28
2024/01/07 10:46:13;;;;;;;0.80;0.65;;;;;;;1.67;90.95;102661.16;5077741;27;100945;-28
2024/01/07 10:48:50;;;;;;;2.30;1.92;;;;;;;1.61;90.56;102666.44;5077629;27;101156;-27
2024/01/07 10:51:18;;;;;;;0.70;0.70;;;;;;;1.54;90.52;102662.84;5078031;27;96663;-28
2024/01/07 10:53:46;;;;;;;1.05;0.73;;;;;;;1.49;88.74;102676.19;5078404;27;96844;-27
2024/01/07 10:56:12;;;;;;;2.72;1.80;;;;;;;1.46;90.49;102669.94;5076742;27;100920;-26
2024/01/07 10:58:39;;;;;;;1.10;1.02;;;;;;;1.46;89.91;102667.28;5077922;27;101179;-28
2024/01/07 11:01:07;;;;;;;1.42;1.33;;;;;;;1.52;88.93;102672.63;5077430;27;98289;-27
2024/01/07 11:03:41;;;;;;;0.90;0.85;;;;;;;1.53;90.20;102677.09;5096858;27;97220;-27
2024/01/07 11:06:36;;;;;;;0.95;0.90;;;;;;;1.51;89.53;102670.84;5077291;27;100964;-27
2024/01/07 11:09:33;;;;;;;15.32;1.30;;;;;;;1.53;87.74;102678.88;5077269;27;100793;-27
2024/01/07 11:11:59;;;;;;;1.20;1.08;;;;;;;1.55;88.65;102666.41;5095325;27;96873;-31
2024/01/07 11:14:39;;;;;;;3.17;2.03;;;;;;;1.59;88.66;102663.75;5096268;27;96826;-27
2024/01/07 11:17:07;;;;;;;0.68;0.52;;;;;;;1.70;87.97;102664.72;5076142;27;101188;-26
2024/01/07 11:19:34;;;;;;;1.27;1.13;;;;;;;1.64;87.29;102654.00;5077396;27;100966;-27
2024/01/07 11:22:35;;;;;;;2.45;1.50;;;;;;;1.72;87.14;102661.16;5095312;27;96706;-27
2024/01/07 11:25:01;;;;;;;1.10;1.05;;;;;;;1.64;87.52;102667.34;5012266;28;96826;-27
2024/01/07 11:27:33;;;;;;;0.57;0.50;;;;;;;1.70;86.93;102680.75;5078595;27;99947;-27